createdAt,value
2022-08-25T00:00:14.989Z,24.40
2022-08-25T00:02:41.430Z,24.47
2022-08-25T00:05:21.308Z,24.50
2022-08-25T00:07:48.062Z,24.48
2022-08-25T00:10:14.443Z,24.49
2022-08-25T00:12:40.836Z,24.50
2022-08-25T00:15:07.242Z,24.57
2022-08-25T00:17:33.652Z,24.54
2022-08-25T00:20:00.017Z,24.52
2022-08-25T00:22:26.412Z,24.46
2022-08-25T00:24:52.825Z,24.46
2022-08-25T00:27:19.307Z,24.49
2022-08-25T00:29:45.684Z,24.55
2022-08-25T00:32:12.083Z,24.61
2022-08-25T00:34:38.458Z,24.63
2022-08-25T00:37:04.873Z,24.70
2022-08-25T00:39:31.262Z,24.68
2022-08-25T00:41:57.656Z,24.59
2022-08-25T00:44:24.090Z,24.51
2022-08-25T00:46:50.512Z,24.61
2022-08-25T00:49:24.774Z,24.63
2022-08-25T00:51:52.012Z,24.59
2022-08-25T00:54:18.407Z,24.59
2022-08-25T00:56:44.841Z,24.59
2022-08-25T00:59:11.223Z,24.66
2022-08-25T01:01:37.642Z,24.69
2022-08-25T01:04:04.065Z,24.70
2022-08-25T01:06:30.473Z,24.62
2022-08-25T01:08:56.897Z,24.62
2022-08-25T01:11:23.291Z,24.66
2022-08-25T01:13:49.681Z,24.66
2022-08-25T01:16:16.121Z,24.67
2022-08-25T01:18:42.549Z,24.53
2022-08-25T01:21:08.943Z,24.54
2022-08-25T01:23:35.356Z,24.44
2022-08-25T01:26:01.749Z,24.33
2022-08-25T01:28:28.137Z,24.26
2022-08-25T01:30:54.621Z,24.32
2022-08-25T01:33:22.399Z,24.32
2022-08-25T01:35:48.791Z,24.29
2022-08-25T01:38:15.187Z,24.18
2022-08-25T01:40:41.575Z,24.17
2022-08-25T01:43:08.003Z,24.12
2022-08-25T01:45:34.393Z,24.14
2022-08-25T01:48:00.891Z,24.09
2022-08-25T01:50:27.331Z,23.99
2022-08-25T01:52:53.716Z,23.98
2022-08-25T01:55:20.092Z,23.95
2022-08-25T01:57:46.472Z,23.90
2022-08-25T02:00:12.894Z,23.95
2022-08-25T02:02:42.460Z,23.96
2022-08-25T02:05:09.257Z,23.94
2022-08-25T02:07:35.634Z,23.93
2022-08-25T02:10:03.495Z,23.99
2022-08-25T02:12:30.030Z,23.98
2022-08-25T02:14:56.419Z,23.95
2022-08-25T02:17:22.814Z,23.88
2022-08-25T02:19:49.190Z,23.93
2022-08-25T02:22:15.581Z,23.94
2022-08-25T02:24:41.996Z,23.92
2022-08-25T02:27:08.423Z,23.89
2022-08-25T02:29:34.801Z,23.80
2022-08-25T02:32:01.187Z,23.78
2022-08-25T02:34:27.568Z,23.89
2022-08-25T02:36:53.946Z,23.87
2022-08-25T02:39:20.331Z,23.90
2022-08-25T02:41:46.717Z,23.90
2022-08-25T02:44:13.142Z,23.74
2022-08-25T02:46:39.549Z,23.74
2022-08-25T02:49:05.945Z,23.74
2022-08-25T02:51:32.326Z,23.65
2022-08-25T02:53:58.707Z,23.79
2022-08-25T02:56:25.107Z,23.91
2022-08-25T02:58:51.553Z,23.93
2022-08-25T03:01:17.968Z,23.98
2022-08-25T03:03:44.559Z,24.03
2022-08-25T03:06:11.057Z,24.00
2022-08-25T03:08:37.437Z,23.91
2022-08-25T03:11:03.835Z,23.84
2022-08-25T03:13:30.241Z,23.78
2022-08-25T03:15:58.022Z,23.68
2022-08-25T03:18:24.418Z,23.64
2022-08-25T03:20:51.040Z,23.74
2022-08-25T03:23:17.453Z,23.64
2022-08-25T03:25:43.864Z,23.41
2022-08-25T03:28:10.269Z,23.27
2022-08-25T03:30:36.658Z,23.27
2022-08-25T03:33:05.787Z,23.23
2022-08-25T03:35:32.173Z,23.25
2022-08-25T03:37:59.603Z,23.19
2022-08-25T03:40:26.086Z,23.18
2022-08-25T03:42:52.491Z,23.17
2022-08-25T03:45:18.881Z,23.18
2022-08-25T03:47:45.276Z,23.18
2022-08-25T03:50:11.654Z,23.25
2022-08-25T03:52:42.355Z,23.26
2022-08-25T03:55:09.155Z,23.20
2022-08-25T03:57:35.540Z,23.20
2022-08-25T04:00:01.930Z,23.20
2022-08-25T04:02:28.328Z,23.20
2022-08-25T04:04:54.772Z,23.24
2022-08-25T04:07:22.028Z,23.17
2022-08-25T04:09:48.415Z,23.03
2022-08-25T04:12:14.789Z,23.14
2022-08-25T04:14:41.182Z,23.21
2022-08-25T04:17:07.558Z,23.24
2022-08-25T04:19:35.306Z,23.20
2022-08-25T04:22:01.693Z,23.34
2022-08-25T04:24:29.808Z,23.34
2022-08-25T04:26:56.195Z,23.33
2022-08-25T04:29:23.498Z,23.23
2022-08-25T04:31:50.413Z,23.13
2022-08-25T04:34:29.490Z,23.01
2022-08-25T04:36:56.455Z,23.01
2022-08-25T04:39:22.882Z,23.02
2022-08-25T04:41:49.301Z,23.00
2022-08-25T04:44:15.723Z,23.00
2022-08-25T04:46:42.104Z,22.98
2022-08-25T04:49:08.516Z,22.86
2022-08-25T04:51:34.945Z,22.84
2022-08-25T04:54:01.348Z,22.93
2022-08-25T04:56:27.777Z,22.91
2022-08-25T04:58:54.189Z,22.91
2022-08-25T05:01:20.631Z,22.91
2022-08-25T05:03:47.078Z,22.92
2022-08-25T05:06:16.029Z,22.85
2022-08-25T05:08:42.816Z,22.81
2022-08-25T05:11:12.506Z,22.85
2022-08-25T05:13:39.314Z,22.77
2022-08-25T05:16:05.758Z,22.78
2022-08-25T05:18:36.160Z,22.71
2022-08-25T05:21:02.557Z,22.64
2022-08-25T05:23:29.002Z,22.66
2022-08-25T05:25:55.386Z,22.66
2022-08-25T05:28:21.780Z,22.72
2022-08-25T05:30:48.172Z,22.64
2022-08-25T05:33:14.572Z,22.66
2022-08-25T05:35:40.966Z,22.72
2022-08-25T05:38:07.360Z,22.89
2022-08-25T05:40:41.511Z,22.99
2022-08-25T05:43:07.902Z,23.01
2022-08-25T05:45:34.332Z,23.10
2022-08-25T05:48:00.734Z,23.15
2022-08-25T05:50:27.133Z,23.12
2022-08-25T05:52:53.534Z,23.13
2022-08-25T05:55:19.924Z,23.12
2022-08-25T05:57:46.308Z,23.16
2022-08-25T06:00:12.695Z,23.17
2022-08-25T06:02:39.081Z,23.04
2022-08-25T06:05:05.479Z,22.90
2022-08-25T06:07:31.861Z,22.90
2022-08-25T06:09:58.321Z,22.89
2022-08-25T06:12:24.805Z,22.90
2022-08-25T06:14:51.195Z,22.82
2022-08-25T06:17:17.606Z,22.85
2022-08-25T06:19:44.067Z,22.79
2022-08-25T06:22:10.995Z,22.86
2022-08-25T06:24:37.369Z,22.94
2022-08-25T06:27:03.774Z,23.05
2022-08-25T06:29:30.160Z,23.11
2022-08-25T06:31:56.652Z,23.14
2022-08-25T06:34:24.184Z,23.28
2022-08-25T06:36:50.798Z,23.32
2022-08-25T06:39:17.197Z,23.39
2022-08-25T06:41:43.577Z,23.51
2022-08-25T06:44:09.973Z,23.44
2022-08-25T06:46:37.189Z,23.23
2022-08-25T06:49:03.747Z,22.87
2022-08-25T06:51:30.176Z,22.98
2022-08-25T06:53:56.558Z,22.65
2022-08-25T06:56:22.935Z,22.13
2022-08-25T06:58:50.447Z,22.64
2022-08-25T07:01:20.005Z,22.86
2022-08-25T07:03:46.855Z,22.57
2022-08-25T07:06:14.036Z,22.33
2022-08-25T07:08:41.058Z,22.48
2022-08-25T07:11:07.458Z,22.51
2022-08-25T07:13:42.536Z,22.58
2022-08-25T07:16:08.980Z,22.48
2022-08-25T07:18:36.053Z,22.26
2022-08-25T07:21:02.433Z,22.65
2022-08-25T07:23:30.415Z,22.83
2022-08-25T07:25:56.806Z,23.04
2022-08-25T07:28:23.199Z,23.10
2022-08-25T07:30:52.177Z,22.76
2022-08-25T07:33:18.685Z,22.54
2022-08-25T07:35:45.077Z,22.82
2022-08-25T07:38:15.550Z,22.98
2022-08-25T07:40:47.193Z,22.70
2022-08-25T07:43:19.865Z,22.36
2022-08-25T07:45:49.678Z,21.87
2022-08-25T07:48:16.116Z,22.00
2022-08-25T07:50:44.857Z,21.97
2022-08-25T07:53:11.516Z,22.21
2022-08-25T07:55:38.959Z,22.25
2022-08-25T07:58:05.599Z,22.39
2022-08-25T08:00:32.004Z,22.28
2022-08-25T08:02:58.535Z,22.58
2022-08-25T08:05:25.226Z,22.48
2022-08-25T08:07:51.624Z,22.40
2022-08-25T08:10:53.843Z,22.63
2022-08-25T08:13:06.626Z,22.75
2022-08-25T08:15:33.752Z,22.84
2022-08-25T08:18:00.158Z,23.10
2022-08-25T08:20:26.613Z,22.99
2022-08-25T08:22:53.000Z,23.31
2022-08-25T08:25:21.550Z,23.29
2022-08-25T08:27:54.976Z,23.00
2022-08-25T08:30:21.642Z,23.15
2022-08-25T08:33:08.587Z,23.05
2022-08-25T08:35:35.945Z,23.05
2022-08-25T08:38:02.463Z,23.18
2022-08-25T08:40:28.901Z,23.60
2022-08-25T08:42:55.669Z,23.92
2022-08-25T08:45:22.089Z,24.05
2022-08-25T08:47:48.471Z,23.66
2022-08-25T08:50:17.566Z,23.49
2022-08-25T08:52:48.730Z,23.51
2022-08-25T08:55:15.303Z,23.18
2022-08-25T08:57:41.877Z,23.15
2022-08-25T09:00:08.549Z,22.59
2022-08-25T09:02:39.449Z,22.67
2022-08-25T09:05:18.181Z,22.64
2022-08-25T09:07:44.611Z,22.63
2022-08-25T09:10:13.716Z,22.65
2022-08-25T09:12:40.217Z,22.64
2022-08-25T09:15:12.750Z,23.00
2022-08-25T09:17:39.729Z,23.12
2022-08-25T09:20:06.157Z,23.08
2022-08-25T09:22:46.907Z,22.96
2022-08-25T09:25:18.766Z,23.42
2022-08-25T09:27:48.662Z,23.88
2022-08-25T09:30:16.058Z,23.31
2022-08-25T09:32:42.470Z,23.22
2022-08-25T09:35:15.483Z,23.05
2022-08-25T09:37:41.886Z,23.08
2022-08-25T09:40:08.311Z,23.71
2022-08-25T09:42:34.760Z,24.04
2022-08-25T09:45:01.327Z,23.76
2022-08-25T09:47:27.729Z,24.18
2022-08-25T09:49:54.533Z,24.05
2022-08-25T09:52:21.963Z,24.10
2022-08-25T09:54:48.380Z,24.25
2022-08-25T09:57:14.786Z,24.11
2022-08-25T09:59:42.059Z,24.28
2022-08-25T10:02:23.723Z,24.60
2022-08-25T10:04:50.171Z,24.78
2022-08-25T10:07:16.648Z,24.76
2022-08-25T10:09:43.031Z,25.31
2022-08-25T10:12:09.446Z,25.60
2022-08-25T10:14:37.498Z,25.72
2022-08-25T10:17:03.896Z,25.06
2022-08-25T10:19:30.505Z,25.18
2022-08-25T10:21:56.907Z,25.37
2022-08-25T10:24:23.283Z,25.14
2022-08-25T10:26:50.068Z,25.16
2022-08-25T10:29:16.785Z,24.74
2022-08-25T10:31:43.173Z,25.29
2022-08-25T10:34:09.659Z,25.16
2022-08-25T10:36:36.074Z,25.58
2022-08-25T10:39:03.591Z,25.84
2022-08-25T10:41:29.988Z,25.72
2022-08-25T10:43:56.415Z,26.11
2022-08-25T10:46:25.164Z,26.35
2022-08-25T10:48:51.624Z,26.43
2022-08-25T10:51:23.707Z,26.49
2022-08-25T10:53:54.205Z,26.29
2022-08-25T10:56:22.727Z,26.70
2022-08-25T10:58:49.134Z,26.79
2022-08-25T11:01:15.974Z,26.86
2022-08-25T11:03:43.584Z,26.98
2022-08-25T11:06:09.975Z,27.10
2022-08-25T11:08:36.363Z,26.61
2022-08-25T11:11:02.856Z,26.68
2022-08-25T11:13:30.943Z,26.15
2022-08-25T11:16:16.652Z,26.82
2022-08-25T11:18:43.702Z,26.65
2022-08-25T11:21:10.213Z,27.21
2022-08-25T11:23:38.469Z,27.14
2022-08-25T11:26:04.931Z,27.13
2022-08-25T11:28:31.798Z,27.15
2022-08-25T11:30:58.240Z,27.55
2022-08-25T11:33:25.902Z,27.60
2022-08-25T11:35:52.291Z,26.87
2022-08-25T11:38:18.655Z,27.35
2022-08-25T11:40:50.290Z,27.61
2022-08-25T11:43:16.876Z,28.34
2022-08-25T11:45:43.836Z,28.01
2022-08-25T11:48:12.254Z,28.03
2022-08-25T11:50:39.236Z,28.41
2022-08-25T11:53:05.637Z,28.07
2022-08-25T11:55:37.681Z,28.50
2022-08-25T11:58:04.238Z,28.28
2022-08-25T12:00:30.925Z,28.44
2022-08-25T12:03:01.300Z,28.55
2022-08-25T12:05:28.326Z,28.62
2022-08-25T12:07:54.751Z,28.26
2022-08-25T12:10:22.697Z,28.22
2022-08-25T12:12:49.249Z,27.85
2022-08-25T12:15:16.809Z,28.61
2022-08-25T12:17:44.617Z,28.63
2022-08-25T12:20:11.272Z,28.68
2022-08-25T12:22:37.699Z,28.71
2022-08-25T12:25:04.107Z,28.88
2022-08-25T12:27:33.525Z,28.25
2022-08-25T12:30:00.494Z,27.90
2022-08-25T12:32:27.387Z,28.33
2022-08-25T12:34:53.980Z,28.75
2022-08-25T12:37:20.386Z,29.10
2022-08-25T12:39:49.966Z,29.33
2022-08-25T12:42:16.396Z,28.97
2022-08-25T12:44:43.256Z,28.93
2022-08-25T12:47:10.433Z,29.23
2022-08-25T12:49:37.119Z,29.84
2022-08-25T12:52:03.550Z,28.93
2022-08-25T12:54:29.952Z,29.35
2022-08-25T12:56:56.357Z,29.62
2022-08-25T12:59:22.757Z,29.95
2022-08-25T13:01:49.400Z,30.53
2022-08-25T13:04:15.876Z,30.91
2022-08-25T13:06:43.234Z,30.45
2022-08-25T13:09:09.700Z,30.57
2022-08-25T13:11:36.794Z,30.52
2022-08-25T13:14:03.163Z,30.42
2022-08-25T13:16:30.132Z,30.57
2022-08-25T13:18:56.648Z,30.38
2022-08-25T13:21:23.085Z,29.45
2022-08-25T13:23:49.557Z,30.35
2022-08-25T13:26:16.328Z,30.64
2022-08-25T13:28:50.289Z,30.77
2022-08-25T13:31:16.946Z,30.73
2022-08-25T13:33:45.098Z,30.86
2022-08-25T13:36:11.525Z,30.94
2022-08-25T13:38:38.273Z,30.28
2022-08-25T13:41:09.443Z,30.54
2022-08-25T13:43:36.312Z,30.58
2022-08-25T13:46:04.865Z,30.99
2022-08-25T13:48:31.783Z,31.38
2022-08-25T13:50:58.175Z,31.40
2022-08-25T13:53:24.651Z,31.48
2022-08-25T13:55:52.170Z,31.08
2022-08-25T13:58:24.189Z,31.14
2022-08-25T14:00:53.683Z,30.20
2022-08-25T14:03:20.372Z,30.32
2022-08-25T14:05:56.423Z,30.38
2022-08-25T14:08:25.871Z,31.04
2022-08-25T14:10:54.750Z,31.40
2022-08-25T14:13:21.132Z,31.68
2022-08-25T14:15:48.352Z,31.84
2022-08-25T14:18:14.762Z,32.37
2022-08-25T14:20:41.701Z,32.30
2022-08-25T14:23:10.266Z,32.16
2022-08-25T14:25:36.772Z,32.69
2022-08-25T14:28:08.126Z,32.27
2022-08-25T14:30:34.901Z,32.48
2022-08-25T14:33:01.364Z,32.18
2022-08-25T14:35:27.763Z,32.01
2022-08-25T14:37:54.174Z,32.44
2022-08-25T14:40:20.612Z,32.67
2022-08-25T14:42:47.066Z,32.42
2022-08-25T14:45:13.525Z,32.46
2022-08-25T14:47:39.917Z,32.58
2022-08-25T14:50:06.312Z,32.28
2022-08-25T14:52:33.041Z,31.62
2022-08-25T14:55:00.258Z,32.03
2022-08-25T14:57:26.808Z,32.20
2022-08-25T14:59:53.624Z,32.15
2022-08-25T15:02:20.346Z,32.45
2022-08-25T15:04:49.250Z,32.04
2022-08-25T15:07:18.320Z,31.50
2022-08-25T15:09:44.737Z,31.85
2022-08-25T15:12:12.553Z,32.57
2022-08-25T15:14:44.107Z,32.81
2022-08-25T15:17:11.864Z,31.86
2022-08-25T15:19:41.225Z,31.56
2022-08-25T15:22:07.612Z,31.79
2022-08-25T15:24:37.985Z,32.42
2022-08-25T15:27:05.463Z,32.91
2022-08-25T15:29:31.892Z,33.59
2022-08-25T15:31:58.351Z,32.79
2022-08-25T15:34:24.865Z,31.51
2022-08-25T15:36:51.327Z,31.65
2022-08-25T15:39:18.009Z,32.66
2022-08-25T15:41:45.461Z,33.22
2022-08-25T15:44:12.598Z,33.32
2022-08-25T15:46:39.245Z,31.63
2022-08-25T15:49:05.753Z,31.88
2022-08-25T15:51:34.403Z,33.27
2022-08-25T15:54:01.053Z,34.60
2022-08-25T15:56:27.445Z,34.95
2022-08-25T15:58:53.873Z,35.77
2022-08-25T16:01:20.333Z,36.17
2022-08-25T16:03:46.782Z,35.76
2022-08-25T16:06:13.199Z,34.63
2022-08-25T16:08:42.654Z,33.55
2022-08-25T16:11:09.068Z,34.94
2022-08-25T16:13:35.511Z,35.62
2022-08-25T16:16:02.027Z,35.58
2022-08-25T16:18:28.466Z,36.26
2022-08-25T16:20:54.867Z,36.70
2022-08-25T16:23:21.257Z,36.24
2022-08-25T16:25:47.635Z,33.89
2022-08-25T16:28:14.153Z,32.58
2022-08-25T16:30:40.552Z,32.02
2022-08-25T16:33:07.201Z,32.04
2022-08-25T16:35:36.338Z,32.38
2022-08-25T16:38:07.182Z,32.59
2022-08-25T16:40:33.780Z,32.58
2022-08-25T16:43:00.932Z,32.11
2022-08-25T16:45:27.320Z,32.07
2022-08-25T16:47:53.708Z,32.22
2022-08-25T16:50:20.108Z,32.38
2022-08-25T16:52:46.788Z,32.50
2022-08-25T16:55:13.181Z,32.38
2022-08-25T16:57:39.547Z,32.75
2022-08-25T17:00:05.940Z,33.02
2022-08-25T17:02:32.774Z,32.75
2022-08-25T17:04:59.178Z,32.58
2022-08-25T17:07:26.238Z,32.60
2022-08-25T17:09:52.638Z,32.35
2022-08-25T17:12:19.837Z,32.36
2022-08-25T17:14:46.249Z,32.39
2022-08-25T17:17:12.640Z,32.30
2022-08-25T17:19:41.303Z,32.24
2022-08-25T17:22:10.607Z,32.15
2022-08-25T17:24:40.506Z,32.07
2022-08-25T17:27:07.528Z,31.99
2022-08-25T17:29:33.921Z,31.94
2022-08-25T17:32:00.317Z,31.83
2022-08-25T17:34:26.903Z,31.73
2022-08-25T17:36:54.249Z,31.62
2022-08-25T17:39:22.374Z,31.57
2022-08-25T17:41:48.961Z,31.57
2022-08-25T17:44:16.886Z,31.66
2022-08-25T17:46:47.035Z,31.62
2022-08-25T17:49:14.330Z,31.65
2022-08-25T17:51:41.929Z,31.47
2022-08-25T17:54:08.350Z,31.10
2022-08-25T17:56:34.755Z,30.57
2022-08-25T17:59:01.145Z,30.54
2022-08-25T18:01:27.622Z,30.42
2022-08-25T18:03:54.054Z,30.53
2022-08-25T18:06:20.457Z,30.63
2022-08-25T18:08:52.191Z,30.65
2022-08-25T18:11:20.167Z,30.65
2022-08-25T18:13:46.588Z,30.59
2022-08-25T18:16:12.982Z,30.51
2022-08-25T18:18:39.390Z,30.54
2022-08-25T18:21:08.385Z,30.40
2022-08-25T18:23:34.809Z,30.26
2022-08-25T18:26:01.366Z,30.15
2022-08-25T18:28:27.802Z,30.17
2022-08-25T18:30:54.638Z,30.19
2022-08-25T18:33:22.663Z,30.14
2022-08-25T18:35:49.180Z,29.98
2022-08-25T18:38:15.591Z,29.88
2022-08-25T18:40:41.976Z,29.69
2022-08-25T18:43:08.446Z,29.73
2022-08-25T18:45:35.361Z,29.84
2022-08-25T18:48:03.954Z,29.61
2022-08-25T18:50:33.054Z,29.48
2022-08-25T18:52:59.462Z,29.60
2022-08-25T18:55:25.857Z,29.63
2022-08-25T18:57:52.268Z,29.56
2022-08-25T19:00:18.744Z,29.52
2022-08-25T19:02:47.010Z,29.36
2022-08-25T19:05:13.675Z,29.24
2022-08-25T19:07:40.331Z,29.07
2022-08-25T19:10:06.852Z,28.94
2022-08-25T19:12:33.688Z,28.89
2022-08-25T19:15:05.139Z,28.82
2022-08-25T19:17:37.404Z,28.70
2022-08-25T19:20:11.232Z,28.63
2022-08-25T19:22:41.580Z,28.67
2022-08-25T19:25:08.591Z,28.66
2022-08-25T19:27:35.731Z,28.59
2022-08-25T19:30:02.176Z,28.61
2022-08-25T19:32:28.691Z,28.69
2022-08-25T19:34:55.478Z,28.64
2022-08-25T19:37:21.974Z,28.54
2022-08-25T19:39:52.921Z,28.60
2022-08-25T19:42:31.698Z,28.68
2022-08-25T19:45:03.009Z,28.66
2022-08-25T19:47:29.478Z,28.72
2022-08-25T19:49:55.984Z,28.63
2022-08-25T19:52:22.414Z,28.59
2022-08-25T19:54:48.807Z,28.64
2022-08-25T19:57:27.828Z,28.57
2022-08-25T20:00:01.635Z,28.55
2022-08-25T20:02:29.520Z,28.62
2022-08-25T20:04:56.293Z,28.62
2022-08-25T20:07:22.692Z,28.60
2022-08-25T20:09:50.226Z,28.55
2022-08-25T20:12:16.701Z,28.55
2022-08-25T20:14:44.345Z,28.53
2022-08-25T20:17:14.818Z,28.55
2022-08-25T20:19:50.540Z,28.39
2022-08-25T20:22:17.497Z,28.35
2022-08-25T20:24:45.109Z,28.19
2022-08-25T20:27:11.540Z,28.05
2022-08-25T20:29:37.946Z,28.22
2022-08-25T20:32:04.370Z,28.25
2022-08-25T20:34:31.567Z,28.30
2022-08-25T20:36:59.094Z,28.38
2022-08-25T20:39:25.520Z,28.28
2022-08-25T20:41:51.933Z,28.32
2022-08-25T20:44:18.371Z,28.31
2022-08-25T20:46:44.794Z,28.26
2022-08-25T20:49:11.309Z,28.28
2022-08-25T20:51:38.456Z,27.42
2022-08-25T20:54:04.978Z,27.48
2022-08-25T20:56:31.385Z,27.73
2022-08-25T20:58:57.765Z,27.91
2022-08-25T21:01:24.348Z,28.04
2022-08-25T21:03:50.955Z,28.15
2022-08-25T21:06:17.427Z,28.16
2022-08-25T21:08:45.083Z,28.16
2022-08-25T21:11:13.252Z,27.92
2022-08-25T21:13:40.190Z,27.94
2022-08-25T21:16:06.603Z,28.05
2022-08-25T21:18:33.242Z,28.05
2022-08-25T21:20:59.699Z,28.08
2022-08-25T21:23:26.553Z,28.10
2022-08-25T21:25:52.951Z,28.02
2022-08-25T21:28:19.397Z,27.94
2022-08-25T21:30:47.635Z,27.95
2022-08-25T21:33:14.084Z,28.04
2022-08-25T21:35:40.535Z,28.05
2022-08-25T21:38:09.384Z,28.11
2022-08-25T21:40:35.826Z,28.10
2022-08-25T21:43:02.217Z,27.99
2022-08-25T21:45:28.627Z,27.90
2022-08-25T21:48:02.547Z,27.91
2022-08-25T21:50:29.159Z,27.92
2022-08-25T21:52:55.563Z,28.02
2022-08-25T21:55:21.953Z,28.02
2022-08-25T21:57:51.526Z,27.96
2022-08-25T22:00:21.329Z,27.93
2022-08-25T22:02:48.000Z,27.98
2022-08-25T22:05:15.389Z,27.91
2022-08-25T22:07:44.006Z,27.89
2022-08-25T22:10:16.611Z,27.90
2022-08-25T22:12:44.213Z,27.90
2022-08-25T22:15:10.639Z,27.88
2022-08-25T22:17:40.123Z,27.82
2022-08-25T22:20:06.515Z,27.87
2022-08-25T22:22:33.675Z,27.86
2022-08-25T22:25:00.922Z,27.83
2022-08-25T22:27:27.314Z,27.78
2022-08-25T22:29:53.721Z,27.77
2022-08-25T22:32:20.129Z,27.82
2022-08-25T22:34:46.567Z,27.73
2022-08-25T22:37:12.954Z,27.69
2022-08-25T22:39:43.005Z,27.67
2022-08-25T22:42:09.436Z,27.73
2022-08-25T22:44:35.834Z,27.73
2022-08-25T22:47:02.247Z,27.79
2022-08-25T22:49:28.620Z,27.76
2022-08-25T22:51:55.354Z,27.73
2022-08-25T22:54:22.484Z,27.74
2022-08-25T22:56:50.291Z,27.69
2022-08-25T22:59:16.684Z,27.71
2022-08-25T23:01:43.150Z,27.62
2022-08-25T23:04:09.535Z,27.65
2022-08-25T23:06:37.230Z,27.63
2022-08-25T23:09:03.663Z,27.69
2022-08-25T23:11:30.097Z,27.69
2022-08-25T23:13:57.632Z,27.72
2022-08-25T23:16:24.075Z,27.76
2022-08-25T23:18:50.817Z,27.74
2022-08-25T23:21:17.203Z,27.72
2022-08-25T23:23:50.653Z,27.71
2022-08-25T23:26:17.061Z,27.66
2022-08-25T23:28:45.762Z,27.60
2022-08-25T23:31:12.186Z,27.58
2022-08-25T23:33:38.598Z,27.60
2022-08-25T23:36:05.685Z,27.57
2022-08-25T23:38:32.092Z,27.56
2022-08-25T23:40:58.872Z,27.57
2022-08-25T23:43:27.350Z,27.54
2022-08-25T23:45:53.797Z,27.48
2022-08-25T23:48:20.271Z,27.47
2022-08-25T23:50:46.655Z,27.44
2022-08-25T23:53:13.074Z,27.39
2022-08-25T23:55:39.598Z,27.38
2022-08-25T23:58:19.657Z,27.47
